sensor_id;sensor_type;location;lat;lon;timestamp;temperature;humidity
2657;DHT22;1338;48.176;11.792;2023-02-15T00:00:17;-1.70;99.90
2657;DHT22;1338;48.176;11.792;2023-02-15T00:02:46;-1.90;99.90
2657;DHT22;1338;48.176;11.792;2023-02-15T00:05:14;-1.90;99.90
2657;DHT22;1338;48.176;11.792;2023-02-15T00:07:42;-1.70;99.90
2657;DHT22;1338;48.176;11.792;2023-02-15T00:10:11;-1.70;99.90
2657;DHT22;1338;48.176;11.792;2023-02-15T00:12:40;-1.70;99.90
2657;DHT22;1338;48.176;11.792;2023-02-15T00:15:08;-1.70;99.90
2657;DHT22;1338;48.176;11.792;2023-02-15T00:17:38;-1.80;99.90
2657;DHT22;1338;48.176;11.792;2023-02-15T00:20:07;-1.70;99.90
2657;DHT22;1338;48.176;11.792;2023-02-15T00:22:35;-1.40;99.90
2657;DHT22;1338;48.176;11.792;2023-02-15T00:25:04;-1.60;99.90
2657;DHT22;1338;48.176;11.792;2023-02-15T00:27:33;-1.50;99.90
2657;DHT22;1338;48.176;11.792;2023-02-15T00:30:04;-1.50;1.00
2657;DHT22;1338;48.176;11.792;2023-02-15T00:32:33;-1.60;1.00
2657;DHT22;1338;48.176;11.792;2023-02-15T00:35:01;-1.60;1.00
2657;DHT22;1338;48.176;11.792;2023-02-15T00:37:29;-1.50;1.00
2657;DHT22;1338;48.176;11.792;2023-02-15T00:39:57;-1.50;1.00
2657;DHT22;1338;48.176;11.792;2023-02-15T00:42:25;-1.30;1.00
2657;DHT22;1338;48.176;11.792;2023-02-15T00:44:54;-1.40;1.00
2657;DHT22;1338;48.176;11.792;2023-02-15T00:47:23;-1.50;1.00
2657;DHT22;1338;48.176;11.792;2023-02-15T00:49:52;-1.60;1.00
2657;DHT22;1338;48.176;11.792;2023-02-15T00:52:20;-1.60;1.00
2657;DHT22;1338;48.176;11.792;2023-02-15T00:54:48;-1.50;1.00
2657;DHT22;1338;48.176;11.792;2023-02-15T00:57:16;-1.50;1.00
2657;DHT22;1338;48.176;11.792;2023-02-15T00:59:44;-1.30;1.00
2657;DHT22;1338;48.176;11.792;2023-02-15T01:02:12;-1.50;1.00
2657;DHT22;1338;48.176;11.792;2023-02-15T01:04:41;-1.40;1.00
2657;DHT22;1338;48.176;11.792;2023-02-15T01:07:10;-1.50;1.00
2657;DHT22;1338;48.176;11.792;2023-02-15T01:09:38;-1.30;1.00
2657;DHT22;1338;48.176;11.792;2023-02-15T01:12:06;-1.60;1.00
2657;DHT22;1338;48.176;11.792;2023-02-15T01:14:35;-1.60;99.90
2657;DHT22;1338;48.176;11.792;2023-02-15T01:17:04;-1.60;99.90
2657;DHT22;1338;48.176;11.792;2023-02-15T01:19:34;-1.60;99.90
2657;DHT22;1338;48.176;11.792;2023-02-15T01:22:04;-1.70;99.90
2657;DHT22;1338;48.176;11.792;2023-02-15T01:24:34;-1.60;99.90
2657;DHT22;1338;48.176;11.792;2023-02-15T01:27:02;-1.50;1.00
2657;DHT22;1338;48.176;11.792;2023-02-15T01:29:31;-1.40;1.00
2657;DHT22;1338;48.176;11.792;2023-02-15T01:31:59;-1.60;99.90
2657;DHT22;1338;48.176;11.792;2023-02-15T01:34:29;-1.60;99.90
2657;DHT22;1338;48.176;11.792;2023-02-15T01:36:57;-1.60;99.90
2657;DHT22;1338;48.176;11.792;2023-02-15T01:39:27;-1.20;1.00
2657;DHT22;1338;48.176;11.792;2023-02-15T01:41:56;-1.50;1.00
2657;DHT22;1338;48.176;11.792;2023-02-15T01:44:49;-1.50;1.00
2657;DHT22;1338;48.176;11.792;2023-02-15T01:47:22;-1.60;99.90
2657;DHT22;1338;48.176;11.792;2023-02-15T01:50:00;-1.50;1.00
2657;DHT22;1338;48.176;11.792;2023-02-15T01:52:29;-1.20;1.00
2657;DHT22;1338;48.176;11.792;2023-02-15T01:54:59;-1.40;1.00
2657;DHT22;1338;48.176;11.792;2023-02-15T01:57:29;-1.30;1.00
2657;DHT22;1338;48.176;11.792;2023-02-15T02:00:00;-1.50;99.90
2657;DHT22;1338;48.176;11.792;2023-02-15T02:02:38;-1.60;99.90
2657;DHT22;1338;48.176;11.792;2023-02-15T02:05:07;-1.40;99.90
2657;DHT22;1338;48.176;11.792;2023-02-15T02:07:38;-1.70;99.90
2657;DHT22;1338;48.176;11.792;2023-02-15T02:10:10;-1.30;99.90
2657;DHT22;1338;48.176;11.792;2023-02-15T02:12:39;-1.70;99.90
2657;DHT22;1338;48.176;11.792;2023-02-15T02:15:09;-1.60;99.90
2657;DHT22;1338;48.176;11.792;2023-02-15T02:17:44;-1.60;99.90
2657;DHT22;1338;48.176;11.792;2023-02-15T02:23:23;-1.60;99.90
2657;DHT22;1338;48.176;11.792;2023-02-15T02:26:22;-1.70;99.90
2657;DHT22;1338;48.176;11.792;2023-02-15T02:35:19;-1.20;99.90
2657;DHT22;1338;48.176;11.792;2023-02-15T02:37:56;-1.60;1.00
2657;DHT22;1338;48.176;11.792;2023-02-15T02:40:35;-1.80;1.00
2657;DHT22;1338;48.176;11.792;2023-02-15T02:43:13;-1.70;1.00
2657;DHT22;1338;48.176;11.792;2023-02-15T02:45:47;-1.80;1.00
2657;DHT22;1338;48.176;11.792;2023-02-15T02:48:20;-1.90;1.00
2657;DHT22;1338;48.176;11.792;2023-02-15T02:50:50;-1.70;1.00
2657;DHT22;1338;48.176;11.792;2023-02-15T02:53:19;-1.80;1.00
2657;DHT22;1338;48.176;11.792;2023-02-15T02:55:52;-1.80;1.00
2657;DHT22;1338;48.176;11.792;2023-02-15T02:58:26;-1.70;1.00
2657;DHT22;1338;48.176;11.792;2023-02-15T03:00:59;-1.80;1.00
2657;DHT22;1338;48.176;11.792;2023-02-15T03:03:36;-1.70;1.00
2657;DHT22;1338;48.176;11.792;2023-02-15T03:06:10;-1.70;1.00
2657;DHT22;1338;48.176;11.792;2023-02-15T03:08:43;-1.50;1.00
2657;DHT22;1338;48.176;11.792;2023-02-15T03:11:13;-1.70;1.00
2657;DHT22;1338;48.176;11.792;2023-02-15T03:13:41;-1.70;1.00
2657;DHT22;1338;48.176;11.792;2023-02-15T03:16:13;-1.60;1.00
2657;DHT22;1338;48.176;11.792;2023-02-15T03:18:58;-1.50;1.00
2657;DHT22;1338;48.176;11.792;2023-02-15T03:21:35;-1.60;1.00
2657;DHT22;1338;48.176;11.792;2023-02-15T03:24:09;-1.70;1.00
2657;DHT22;1338;48.176;11.792;2023-02-15T03:26:43;-2.10;1.00
2657;DHT22;1338;48.176;11.792;2023-02-15T03:29:14;-2.20;1.00
2657;DHT22;1338;48.176;11.792;2023-02-15T03:31:45;-2.30;14.80
2657;DHT22;1338;48.176;11.792;2023-02-15T03:34:15;-2.20;99.90
2657;DHT22;1338;48.176;11.792;2023-02-15T03:36:50;-2.40;99.90
2657;DHT22;1338;48.176;11.792;2023-02-15T03:39:24;-2.40;99.90
2657;DHT22;1338;48.176;11.792;2023-02-15T03:41:58;-2.30;99.90
2657;DHT22;1338;48.176;11.792;2023-02-15T03:44:30;-2.30;99.90
2657;DHT22;1338;48.176;11.792;2023-02-15T03:47:26;-2.20;1.00
2657;DHT22;1338;48.176;11.792;2023-02-15T03:50:00;-2.10;1.00
2657;DHT22;1338;48.176;11.792;2023-02-15T03:52:32;-2.00;1.00
2657;DHT22;1338;48.176;11.792;2023-02-15T03:55:00;-2.10;99.90
2657;DHT22;1338;48.176;11.792;2023-02-15T03:57:29;-2.30;99.90
2657;DHT22;1338;48.176;11.792;2023-02-15T04:00:18;-2.40;1.00
2657;DHT22;1338;48.176;11.792;2023-02-15T04:03:12;-2.40;1.00
2657;DHT22;1338;48.176;11.792;2023-02-15T04:05:44;-2.40;1.00
2657;DHT22;1338;48.176;11.792;2023-02-15T04:08:14;-2.30;1.00
2657;DHT22;1338;48.176;11.792;2023-02-15T04:10:42;-2.30;1.00
2657;DHT22;1338;48.176;11.792;2023-02-15T04:13:30;-2.20;1.00
2657;DHT22;1338;48.176;11.792;2023-02-15T04:15:58;-2.40;1.00
2657;DHT22;1338;48.176;11.792;2023-02-15T04:18:36;-2.40;1.00
2657;DHT22;1338;48.176;11.792;2023-02-15T04:21:23;-2.50;1.00
2657;DHT22;1338;48.176;11.792;2023-02-15T04:24:11;-2.20;1.00
2657;DHT22;1338;48.176;11.792;2023-02-15T04:26:57;-2.00;1.00
2657;DHT22;1338;48.176;11.792;2023-02-15T04:29:26;-2.30;1.00
2657;DHT22;1338;48.176;11.792;2023-02-15T04:31:56;-2.20;1.00
2657;DHT22;1338;48.176;11.792;2023-02-15T04:34:25;-2.10;1.00
2657;DHT22;1338;48.176;11.792;2023-02-15T04:36:53;-2.10;1.00
2657;DHT22;1338;48.176;11.792;2023-02-15T04:39:23;-2.20;1.00
2657;DHT22;1338;48.176;11.792;2023-02-15T04:41:51;-2.10;1.00
2657;DHT22;1338;48.176;11.792;2023-02-15T04:44:19;-2.00;1.00
2657;DHT22;1338;48.176;11.792;2023-02-15T04:46:47;-2.20;1.00
2657;DHT22;1338;48.176;11.792;2023-02-15T04:49:15;-2.20;1.00
2657;DHT22;1338;48.176;11.792;2023-02-15T04:51:43;-2.10;1.00
2657;DHT22;1338;48.176;11.792;2023-02-15T04:54:11;-2.50;1.00
2657;DHT22;1338;48.176;11.792;2023-02-15T04:56:41;-2.60;1.00
2657;DHT22;1338;48.176;11.792;2023-02-15T04:59:10;-2.70;1.00
2657;DHT22;1338;48.176;11.792;2023-02-15T05:01:38;-2.70;1.00
2657;DHT22;1338;48.176;11.792;2023-02-15T05:04:06;-2.60;1.00
2657;DHT22;1338;48.176;11.792;2023-02-15T05:06:36;-2.50;1.00
2657;DHT22;1338;48.176;11.792;2023-02-15T05:09:04;-2.60;1.00
2657;DHT22;1338;48.176;11.792;2023-02-15T05:11:32;-2.50;1.00
2657;DHT22;1338;48.176;11.792;2023-02-15T05:14:01;-2.40;1.00
2657;DHT22;1338;48.176;11.792;2023-02-15T05:16:29;-2.70;1.00
2657;DHT22;1338;48.176;11.792;2023-02-15T05:18:58;-2.50;1.00
2657;DHT22;1338;48.176;11.792;2023-02-15T05:21:26;-2.20;1.00
2657;DHT22;1338;48.176;11.792;2023-02-15T05:23:54;-2.20;1.00
2657;DHT22;1338;48.176;11.792;2023-02-15T05:26:23;-2.60;1.00
2657;DHT22;1338;48.176;11.792;2023-02-15T05:29:11;-2.70;1.00
2657;DHT22;1338;48.176;11.792;2023-02-15T05:31:39;-2.90;1.00
2657;DHT22;1338;48.176;11.792;2023-02-15T05:34:07;-2.80;1.00
2657;DHT22;1338;48.176;11.792;2023-02-15T05:36:35;-2.90;1.00
2657;DHT22;1338;48.176;11.792;2023-02-15T05:39:04;-2.70;1.00
2657;DHT22;1338;48.176;11.792;2023-02-15T05:41:36;-2.60;1.00
2657;DHT22;1338;48.176;11.792;2023-02-15T05:44:04;-2.80;1.00
2657;DHT22;1338;48.176;11.792;2023-02-15T05:46:33;-2.70;1.00
2657;DHT22;1338;48.176;11.792;2023-02-15T05:49:02;-2.60;1.00
2657;DHT22;1338;48.176;11.792;2023-02-15T05:51:31;-2.70;1.00
2657;DHT22;1338;48.176;11.792;2023-02-15T05:54:02;-2.60;1.00
2657;DHT22;1338;48.176;11.792;2023-02-15T05:56:30;-2.60;1.00
2657;DHT22;1338;48.176;11.792;2023-02-15T05:58:58;-2.50;1.00
2657;DHT22;1338;48.176;11.792;2023-02-15T06:01:27;-2.60;1.00
2657;DHT22;1338;48.176;11.792;2023-02-15T06:03:56;-2.60;1.00
2657;DHT22;1338;48.176;11.792;2023-02-15T06:06:24;-2.60;1.00
2657;DHT22;1338;48.176;11.792;2023-02-15T06:08:52;-2.60;1.00
2657;DHT22;1338;48.176;11.792;2023-02-15T06:11:20;-2.60;1.00
2657;DHT22;1338;48.176;11.792;2023-02-15T06:13:49;-2.70;1.00
2657;DHT22;1338;48.176;11.792;2023-02-15T06:16:17;-2.50;1.00
2657;DHT22;1338;48.176;11.792;2023-02-15T06:18:45;-2.60;1.00
2657;DHT22;1338;48.176;11.792;2023-02-15T06:21:15;-2.60;1.00
2657;DHT22;1338;48.176;11.792;2023-02-15T06:23:44;-2.50;1.00
2657;DHT22;1338;48.176;11.792;2023-02-15T06:26:12;-2.60;1.00
2657;DHT22;1338;48.176;11.792;2023-02-15T06:28:40;-2.50;1.00
2657;DHT22;1338;48.176;11.792;2023-02-15T06:31:08;-2.50;1.00
2657;DHT22;1338;48.176;11.792;2023-02-15T06:33:37;-2.50;1.00
2657;DHT22;1338;48.176;11.792;2023-02-15T06:36:05;-2.70;1.00
2657;DHT22;1338;48.176;11.792;2023-02-15T06:38:35;-2.70;1.00
2657;DHT22;1338;48.176;11.792;2023-02-15T06:41:03;-2.50;1.00
2657;DHT22;1338;48.176;11.792;2023-02-15T06:43:31;-2.00;1.00
2657;DHT22;1338;48.176;11.792;2023-02-15T06:46:00;1.50;1.00
2657;DHT22;1338;48.176;11.792;2023-02-15T06:48:29;-0.20;1.00
2657;DHT22;1338;48.176;11.792;2023-02-15T06:50:57;-1.70;99.90
2657;DHT22;1338;48.176;11.792;2023-02-15T06:53:25;-2.30;99.90
2657;DHT22;1338;48.176;11.792;2023-02-15T06:56:00;-2.20;99.90
2657;DHT22;1338;48.176;11.792;2023-02-15T06:58:29;-2.40;99.90
2657;DHT22;1338;48.176;11.792;2023-02-15T07:00:57;-2.40;99.90
2657;DHT22;1338;48.176;11.792;2023-02-15T07:03:25;-2.70;99.90
2657;DHT22;1338;48.176;11.792;2023-02-15T07:05:54;-2.60;99.90
2657;DHT22;1338;48.176;11.792;2023-02-15T07:08:24;-2.70;99.90
2657;DHT22;1338;48.176;11.792;2023-02-15T07:10:54;-2.70;96.00
2657;DHT22;1338;48.176;11.792;2023-02-15T07:13:44;-2.80;4.50
2657;DHT22;1338;48.176;11.792;2023-02-15T07:16:11;-2.80;1.00
2657;DHT22;1338;48.176;11.792;2023-02-15T07:18:40;-2.90;1.00
2657;DHT22;1338;48.176;11.792;2023-02-15T07:21:08;-2.80;1.00
2657;DHT22;1338;48.176;11.792;2023-02-15T07:23:37;-3.00;1.00
2657;DHT22;1338;48.176;11.792;2023-02-15T07:26:07;-2.80;1.00
2657;DHT22;1338;48.176;11.792;2023-02-15T07:28:35;-2.30;1.00
2657;DHT22;1338;48.176;11.792;2023-02-15T07:31:04;-2.30;1.00
2657;DHT22;1338;48.176;11.792;2023-02-15T07:33:33;-2.30;1.00
2657;DHT22;1338;48.176;11.792;2023-02-15T07:36:04;-2.40;1.00
2657;DHT22;1338;48.176;11.792;2023-02-15T07:38:33;-2.60;1.00
2657;DHT22;1338;48.176;11.792;2023-02-15T07:41:03;-2.60;1.00
2657;DHT22;1338;48.176;11.792;2023-02-15T07:43:35;-2.70;1.00
2657;DHT22;1338;48.176;11.792;2023-02-15T07:46:05;-2.60;1.00
2657;DHT22;1338;48.176;11.792;2023-02-15T07:48:34;-2.60;1.00
2657;DHT22;1338;48.176;11.792;2023-02-15T07:51:05;-2.20;1.00
2657;DHT22;1338;48.176;11.792;2023-02-15T07:53:33;-2.30;1.00
2657;DHT22;1338;48.176;11.792;2023-02-15T07:56:04;-2.10;1.00
2657;DHT22;1338;48.176;11.792;2023-02-15T07:58:34;-2.10;1.00
2657;DHT22;1338;48.176;11.792;2023-02-15T08:01:19;-2.20;1.00
2657;DHT22;1338;48.176;11.792;2023-02-15T08:03:47;-2.30;1.00
2657;DHT22;1338;48.176;11.792;2023-02-15T08:06:16;-2.40;1.00
2657;DHT22;1338;48.176;11.792;2023-02-15T08:08:44;-2.20;1.00
2657;DHT22;1338;48.176;11.792;2023-02-15T08:11:17;-1.90;1.00
2657;DHT22;1338;48.176;11.792;2023-02-15T08:14:04;-2.10;1.00
2657;DHT22;1338;48.176;11.792;2023-02-15T08:16:35;-1.80;1.00
2657;DHT22;1338;48.176;11.792;2023-02-15T08:19:05;-1.80;1.00
2657;DHT22;1338;48.176;11.792;2023-02-15T08:21:35;-1.70;1.00
2657;DHT22;1338;48.176;11.792;2023-02-15T08:24:04;-1.70;1.00
2657;DHT22;1338;48.176;11.792;2023-02-15T08:26:33;-1.70;1.00
2657;DHT22;1338;48.176;11.792;2023-02-15T08:29:03;-1.60;1.00
2657;DHT22;1338;48.176;11.792;2023-02-15T08:31:33;-1.50;1.00
2657;DHT22;1338;48.176;11.792;2023-02-15T08:34:02;-1.50;99.90
2657;DHT22;1338;48.176;11.792;2023-02-15T08:36:31;-1.40;99.90
2657;DHT22;1338;48.176;11.792;2023-02-15T08:39:01;-1.60;65.90
2657;DHT22;1338;48.176;11.792;2023-02-15T08:41:31;-1.70;1.00
2657;DHT22;1338;48.176;11.792;2023-02-15T08:44:03;-1.30;4.70
2657;DHT22;1338;48.176;11.792;2023-02-15T08:46:33;-1.10;1.00
2657;DHT22;1338;48.176;11.792;2023-02-15T08:49:02;-1.10;1.00
2657;DHT22;1338;48.176;11.792;2023-02-15T08:51:32;-1.20;1.00
2657;DHT22;1338;48.176;11.792;2023-02-15T08:54:03;-1.10;1.00
2657;DHT22;1338;48.176;11.792;2023-02-15T08:56:33;-1.30;1.00
2657;DHT22;1338;48.176;11.792;2023-02-15T08:59:03;-1.00;1.00
2657;DHT22;1338;48.176;11.792;2023-02-15T09:01:33;-1.00;1.00
2657;DHT22;1338;48.176;11.792;2023-02-15T09:04:04;-1.20;1.00
2657;DHT22;1338;48.176;11.792;2023-02-15T09:06:33;-1.00;1.00
2657;DHT22;1338;48.176;11.792;2023-02-15T09:09:01;-0.70;1.00
2657;DHT22;1338;48.176;11.792;2023-02-15T09:11:33;-0.50;1.00
2657;DHT22;1338;48.176;11.792;2023-02-15T09:14:04;-0.40;1.00
2657;DHT22;1338;48.176;11.792;2023-02-15T09:16:34;-0.80;99.90
2657;DHT22;1338;48.176;11.792;2023-02-15T09:19:03;-0.50;99.90
2657;DHT22;1338;48.176;11.792;2023-02-15T09:21:33;-0.10;99.90
2657;DHT22;1338;48.176;11.792;2023-02-15T09:24:04;0.00;99.90
2657;DHT22;1338;48.176;11.792;2023-02-15T09:26:35;0.30;99.90
2657;DHT22;1338;48.176;11.792;2023-02-15T09:29:05;0.00;99.90
2657;DHT22;1338;48.176;11.792;2023-02-15T09:31:38;0.30;99.90
2657;DHT22;1338;48.176;11.792;2023-02-15T09:34:08;0.30;97.90
2657;DHT22;1338;48.176;11.792;2023-02-15T09:36:37;0.50;99.90
2657;DHT22;1338;48.176;11.792;2023-02-15T09:39:09;0.70;18.10
2657;DHT22;1338;48.176;11.792;2023-02-15T09:41:59;0.40;1.00
2657;DHT22;1338;48.176;11.792;2023-02-15T09:44:47;0.30;1.00
2657;DHT22;1338;48.176;11.792;2023-02-15T09:47:31;0.60;1.00
2657;DHT22;1338;48.176;11.792;2023-02-15T09:50:09;0.80;1.00
2657;DHT22;1338;48.176;11.792;2023-02-15T09:52:55;0.80;1.00
2657;DHT22;1338;48.176;11.792;2023-02-15T09:55:40;0.80;1.00
2657;DHT22;1338;48.176;11.792;2023-02-15T09:58:18;0.70;1.00
2657;DHT22;1338;48.176;11.792;2023-02-15T10:00:55;0.90;1.00
2657;DHT22;1338;48.176;11.792;2023-02-15T10:03:37;1.00;1.00
2657;DHT22;1338;48.176;11.792;2023-02-15T10:06:31;1.00;1.00
2657;DHT22;1338;48.176;11.792;2023-02-15T10:09:14;0.90;1.00
2657;DHT22;1338;48.176;11.792;2023-02-15T10:12:02;1.10;1.00
2657;DHT22;1338;48.176;11.792;2023-02-15T10:14:51;1.90;1.00
2657;DHT22;1338;48.176;11.792;2023-02-15T10:17:34;2.30;1.00
2657;DHT22;1338;48.176;11.792;2023-02-15T10:20:13;2.20;1.00
2657;DHT22;1338;48.176;11.792;2023-02-15T10:22:56;2.20;1.00
2657;DHT22;1338;48.176;11.792;2023-02-15T10:25:34;2.30;1.00
2657;DHT22;1338;48.176;11.792;2023-02-15T10:28:15;2.50;1.00
2657;DHT22;1338;48.176;11.792;2023-02-15T10:30:47;2.80;1.00
2657;DHT22;1338;48.176;11.792;2023-02-15T10:33:34;2.80;1.00
2657;DHT22;1338;48.176;11.792;2023-02-15T10:36:16;2.90;1.00
2657;DHT22;1338;48.176;11.792;2023-02-15T10:38:50;2.80;1.00
2657;DHT22;1338;48.176;11.792;2023-02-15T10:41:28;1.90;1.00
2657;DHT22;1338;48.176;11.792;2023-02-15T10:44:14;2.70;1.00
2657;DHT22;1338;48.176;11.792;2023-02-15T10:47:08;3.10;1.00
2657;DHT22;1338;48.176;11.792;2023-02-15T10:49:51;3.20;1.00
2657;DHT22;1338;48.176;11.792;2023-02-15T10:52:30;3.40;1.00
2657;DHT22;1338;48.176;11.792;2023-02-15T10:55:08;3.60;1.00
2657;DHT22;1338;48.176;11.792;2023-02-15T10:57:44;2.80;99.90
2657;DHT22;1338;48.176;11.792;2023-02-15T11:00:18;2.50;1.00
2657;DHT22;1338;48.176;11.792;2023-02-15T11:03:02;2.60;1.00
2657;DHT22;1338;48.176;11.792;2023-02-15T11:05:41;2.70;1.00
2657;DHT22;1338;48.176;11.792;2023-02-15T11:08:11;2.60;1.00
2657;DHT22;1338;48.176;11.792;2023-02-15T11:10:43;2.70;1.00
2657;DHT22;1338;48.176;11.792;2023-02-15T11:13:15;3.30;1.00
2657;DHT22;1338;48.176;11.792;2023-02-15T11:15:47;3.50;1.00
2657;DHT22;1338;48.176;11.792;2023-02-15T11:18:21;3.60;1.00
2657;DHT22;1338;48.176;11.792;2023-02-15T11:20:56;3.40;1.00
2657;DHT22;1338;48.176;11.792;2023-02-15T11:23:27;3.20;1.00
2657;DHT22;1338;48.176;11.792;2023-02-15T11:25:58;3.00;1.00
2657;DHT22;1338;48.176;11.792;2023-02-15T11:28:31;3.40;1.00
2657;DHT22;1338;48.176;11.792;2023-02-15T11:31:02;4.20;1.00
2657;DHT22;1338;48.176;11.792;2023-02-15T11:33:44;3.80;1.00
2657;DHT22;1338;48.176;11.792;2023-02-15T11:36:17;4.20;1.00
2657;DHT22;1338;48.176;11.792;2023-02-15T11:38:50;4.70;99.90
2657;DHT22;1338;48.176;11.792;2023-02-15T11:41:22;5.10;99.90
2657;DHT22;1338;48.176;11.792;2023-02-15T11:43:56;5.10;99.90
2657;DHT22;1338;48.176;11.792;2023-02-15T11:46:26;5.00;99.90
2657;DHT22;1338;48.176;11.792;2023-02-15T11:48:55;5.00;99.90
2657;DHT22;1338;48.176;11.792;2023-02-15T11:51:27;5.00;99.90
2657;DHT22;1338;48.176;11.792;2023-02-15T11:53:56;5.20;99.90
2657;DHT22;1338;48.176;11.792;2023-02-15T11:56:25;5.70;99.90
2657;DHT22;1338;48.176;11.792;2023-02-15T11:58:57;5.50;99.90
2657;DHT22;1338;48.176;11.792;2023-02-15T12:01:30;5.50;99.90
2657;DHT22;1338;48.176;11.792;2023-02-15T12:04:01;5.80;99.90
2657;DHT22;1338;48.176;11.792;2023-02-15T12:06:35;5.50;99.90
2657;DHT22;1338;48.176;11.792;2023-02-15T12:09:12;5.80;99.90
2657;DHT22;1338;48.176;11.792;2023-02-15T12:11:42;6.20;99.90
2657;DHT22;1338;48.176;11.792;2023-02-15T12:14:12;6.40;99.90
2657;DHT22;1338;48.176;11.792;2023-02-15T12:16:44;6.50;99.90
2657;DHT22;1338;48.176;11.792;2023-02-15T12:19:29;6.30;99.90
2657;DHT22;1338;48.176;11.792;2023-02-15T12:22:01;6.00;99.90
2657;DHT22;1338;48.176;11.792;2023-02-15T12:24:33;6.10;99.90
2657;DHT22;1338;48.176;11.792;2023-02-15T12:27:04;6.50;99.90
2657;DHT22;1338;48.176;11.792;2023-02-15T12:29:39;7.30;99.90
2657;DHT22;1338;48.176;11.792;2023-02-15T12:32:15;6.80;99.90
2657;DHT22;1338;48.176;11.792;2023-02-15T12:34:46;6.90;99.90
2657;DHT22;1338;48.176;11.792;2023-02-15T12:37:21;7.10;99.90
2657;DHT22;1338;48.176;11.792;2023-02-15T12:39:53;7.00;99.90
2657;DHT22;1338;48.176;11.792;2023-02-15T12:42:22;7.60;99.90
2657;DHT22;1338;48.176;11.792;2023-02-15T12:44:57;7.90;99.90
2657;DHT22;1338;48.176;11.792;2023-02-15T12:47:25;8.10;99.90
2657;DHT22;1338;48.176;11.792;2023-02-15T12:50:08;7.60;99.90
2657;DHT22;1338;48.176;11.792;2023-02-15T12:52:46;8.10;99.90
2657;DHT22;1338;48.176;11.792;2023-02-15T12:55:22;9.00;99.90
2657;DHT22;1338;48.176;11.792;2023-02-15T12:58:05;8.70;99.90
2657;DHT22;1338;48.176;11.792;2023-02-15T13:00:33;8.90;99.90
2657;DHT22;1338;48.176;11.792;2023-02-15T13:03:02;8.70;99.90
2657;DHT22;1338;48.176;11.792;2023-02-15T13:05:33;8.50;99.90
2657;DHT22;1338;48.176;11.792;2023-02-15T13:08:10;8.80;99.90
2657;DHT22;1338;48.176;11.792;2023-02-15T13:10:41;9.40;99.90
2657;DHT22;1338;48.176;11.792;2023-02-15T13:13:16;9.40;99.90
2657;DHT22;1338;48.176;11.792;2023-02-15T13:15:50;9.90;99.90
2657;DHT22;1338;48.176;11.792;2023-02-15T13:18:29;8.80;99.90
2657;DHT22;1338;48.176;11.792;2023-02-15T13:21:04;9.70;99.90
2657;DHT22;1338;48.176;11.792;2023-02-15T13:23:35;9.00;99.90
2657;DHT22;1338;48.176;11.792;2023-02-15T13:26:08;8.60;99.90
2657;DHT22;1338;48.176;11.792;2023-02-15T13:28:39;9.10;99.90
2657;DHT22;1338;48.176;11.792;2023-02-15T13:31:13;9.80;99.90
2657;DHT22;1338;48.176;11.792;2023-02-15T13:33:45;10.20;99.90
2657;DHT22;1338;48.176;11.792;2023-02-15T13:36:21;11.10;99.90
2657;DHT22;1338;48.176;11.792;2023-02-15T13:39:15;10.90;99.90
2657;DHT22;1338;48.176;11.792;2023-02-15T13:41:55;10.40;99.90
2657;DHT22;1338;48.176;11.792;2023-02-15T13:44:53;9.80;99.90
2657;DHT22;1338;48.176;11.792;2023-02-15T13:47:28;9.10;99.90
2657;DHT22;1338;48.176;11.792;2023-02-15T13:50:12;9.70;99.90
2657;DHT22;1338;48.176;11.792;2023-02-15T13:52:50;9.80;99.90
2657;DHT22;1338;48.176;11.792;2023-02-15T13:55:38;8.90;99.90
2657;DHT22;1338;48.176;11.792;2023-02-15T13:58:34;9.30;99.90
2657;DHT22;1338;48.176;11.792;2023-02-15T14:01:10;9.60;99.90
2657;DHT22;1338;48.176;11.792;2023-02-15T14:04:04;9.80;99.90
2657;DHT22;1338;48.176;11.792;2023-02-15T14:07:02;10.90;99.90
2657;DHT22;1338;48.176;11.792;2023-02-15T14:09:43;10.50;99.90
2657;DHT22;1338;48.176;11.792;2023-02-15T14:12:35;9.90;99.90
2657;DHT22;1338;48.176;11.792;2023-02-15T14:15:18;10.50;99.90
2657;DHT22;1338;48.176;11.792;2023-02-15T14:17:57;10.70;99.90
2657;DHT22;1338;48.176;11.792;2023-02-15T14:20:39;10.50;99.90
2657;DHT22;1338;48.176;11.792;2023-02-15T14:23:20;9.60;99.90
2657;DHT22;1338;48.176;11.792;2023-02-15T14:26:00;9.60;99.90
2657;DHT22;1338;48.176;11.792;2023-02-15T14:28:54;9.60;99.90
2657;DHT22;1338;48.176;11.792;2023-02-15T14:31:30;9.60;99.90
2657;DHT22;1338;48.176;11.792;2023-02-15T14:34:01;10.50;99.90
2657;DHT22;1338;48.176;11.792;2023-02-15T14:36:31;9.80;99.90
2657;DHT22;1338;48.176;11.792;2023-02-15T14:39:07;10.00;99.90
2657;DHT22;1338;48.176;11.792;2023-02-15T14:42:07;10.20;99.90
2657;DHT22;1338;48.176;11.792;2023-02-15T14:44:40;10.10;99.90
2657;DHT22;1338;48.176;11.792;2023-02-15T14:47:13;9.70;99.90
2657;DHT22;1338;48.176;11.792;2023-02-15T14:49:44;10.50;99.90
2657;DHT22;1338;48.176;11.792;2023-02-15T14:52:12;11.20;99.90
2657;DHT22;1338;48.176;11.792;2023-02-15T14:54:58;11.50;98.70
2657;DHT22;1338;48.176;11.792;2023-02-15T14:57:33;10.90;96.50
2657;DHT22;1338;48.176;11.792;2023-02-15T15:00:30;11.30;99.50
2657;DHT22;1338;48.176;11.792;2023-02-15T15:02:59;10.80;94.10
2657;DHT22;1338;48.176;11.792;2023-02-15T15:05:33;11.20;96.40
2657;DHT22;1338;48.176;11.792;2023-02-15T15:08:03;10.70;94.10
2657;DHT22;1338;48.176;11.792;2023-02-15T15:10:41;10.90;99.90
2657;DHT22;1338;48.176;11.792;2023-02-15T15:13:36;11.40;97.50
2657;DHT22;1338;48.176;11.792;2023-02-15T15:16:29;11.40;90.30
2657;DHT22;1338;48.176;11.792;2023-02-15T15:18:59;10.20;95.30
2657;DHT22;1338;48.176;11.792;2023-02-15T15:21:53;10.70;99.10
2657;DHT22;1338;48.176;11.792;2023-02-15T15:24:50;10.20;96.30
2657;DHT22;1338;48.176;11.792;2023-02-15T15:27:52;10.30;99.90
2657;DHT22;1338;48.176;11.792;2023-02-15T15:34:02;10.70;90.20
2657;DHT22;1338;48.176;11.792;2023-02-15T15:40:11;10.80;90.30
2657;DHT22;1338;48.176;11.792;2023-02-15T15:42:57;9.90;96.20
2657;DHT22;1338;48.176;11.792;2023-02-15T15:45:57;10.00;96.30
2657;DHT22;1338;48.176;11.792;2023-02-15T15:48:31;10.10;98.30
2657;DHT22;1338;48.176;11.792;2023-02-15T15:51:05;10.20;93.60
2657;DHT22;1338;48.176;11.792;2023-02-15T15:53:40;10.20;94.00
2657;DHT22;1338;48.176;11.792;2023-02-15T15:56:13;9.60;90.00
2657;DHT22;1338;48.176;11.792;2023-02-15T15:58:46;9.90;90.80
2657;DHT22;1338;48.176;11.792;2023-02-15T16:01:15;9.30;94.00
2657;DHT22;1338;48.176;11.792;2023-02-15T16:03:52;9.00;96.10
2657;DHT22;1338;48.176;11.792;2023-02-15T16:06:33;8.80;96.70
2657;DHT22;1338;48.176;11.792;2023-02-15T16:09:12;8.20;95.80
2657;DHT22;1338;48.176;11.792;2023-02-15T16:11:42;8.80;99.90
2657;DHT22;1338;48.176;11.792;2023-02-15T16:14:15;7.70;99.90
2657;DHT22;1338;48.176;11.792;2023-02-15T16:16:54;7.30;99.90
2657;DHT22;1338;48.176;11.792;2023-02-15T16:19:26;7.30;99.90
2657;DHT22;1338;48.176;11.792;2023-02-15T16:21:59;6.40;99.90
2657;DHT22;1338;48.176;11.792;2023-02-15T16:24:53;6.30;99.90
2657;DHT22;1338;48.176;11.792;2023-02-15T16:27:35;6.00;99.90
2657;DHT22;1338;48.176;11.792;2023-02-15T16:30:28;6.00;99.90
2657;DHT22;1338;48.176;11.792;2023-02-15T16:33:05;5.10;99.90
2657;DHT22;1338;48.176;11.792;2023-02-15T16:35:35;4.50;99.90
2657;DHT22;1338;48.176;11.792;2023-02-15T16:38:08;4.60;99.90
2657;DHT22;1338;48.176;11.792;2023-02-15T16:40:45;4.60;1.00
2657;DHT22;1338;48.176;11.792;2023-02-15T16:43:21;4.60;1.00
2657;DHT22;1338;48.176;11.792;2023-02-15T16:45:56;4.50;1.00
2657;DHT22;1338;48.176;11.792;2023-02-15T16:48:26;4.10;1.00
2657;DHT22;1338;48.176;11.792;2023-02-15T16:50:56;4.20;1.00
2657;DHT22;1338;48.176;11.792;2023-02-15T16:53:28;3.50;1.00
2657;DHT22;1338;48.176;11.792;2023-02-15T16:55:59;3.20;1.00
2657;DHT22;1338;48.176;11.792;2023-02-15T16:58:32;2.00;1.00